KFSI

Details ICAO KFSI (FSI)
Name HENRY POST AAF
Region United States
Timezone America/Chicago (UTC-6.0)
Plans Departing 3
Arriving 3
Stats Elevation 1,188 ft / 362 m (AMSL)
Location 34.649821° -98.402175°
Runways 1
Magnetic Variation 4.260° E
Sunrise 2017-12-16 13:35:32 UTC / 2017-12-16 07:35:32 Local
Sunset 2017-12-16 23:25:59 UTC / 2017-12-16 17:25:59 Local
Advertisement - Login to hide

Runways

ID Width Length Bearing (true) Bearing (mag) Surface Threshold Offset Overrun Length
17 150 ft / 46 m 5,015 ft / 1,528 m 180.13° 175.87° Concrete 0 ft / 0 m 0 ft / 0 m
35 150 ft / 46 m 5,015 ft / 1,528 m 0.13° 355.87° Concrete 0 ft / 0 m 0 ft / 0 m

Map

Weather


0- 5 10 15 20 25 30 35+ Temperature / ° C

Clouds and Precipitation
Forecast for 2017-12-16 18:00 UTC. Updated 2 hours ago

Ground ~20,000 ft ~40,000 ft Winds

METAR

KFSI 161456Z AUTO 21009KT 10SM CLR 01/M03 A3003 RMK AO2 SLP175 T00101033 52003

TAF

Not found

Frequencies

Recorded 135.42 MHz ATIS
Ground 121.70 MHz POST GND
Approach 118.60 MHz FORT SILL APP/DEP
Approach 127.30 MHz FORT SILL APP/DEP
Clearance 121.70 MHz CLNC DEL
Tower 124.95 MHz POST TWR
Approach 120.55 MHz FORT SILL APP/DEP
Warning: Do not use this data for real-world aviation or navigation. No guarantee of current accuracy is given.